createdAt,value
2022-11-24T00:01:09.988Z,97493.09
2022-11-24T00:03:37.247Z,97489.97
2022-11-24T00:06:11.882Z,97492.00
2022-11-24T00:08:40.080Z,97496.00
2022-11-24T00:11:09.217Z,97495.09
2022-11-24T00:13:36.210Z,97500.19
2022-11-24T00:16:14.593Z,97495.03
2022-11-24T00:18:42.912Z,97490.19
2022-11-24T00:21:10.087Z,97488.28
2022-11-24T00:23:37.420Z,97490.91
2022-11-24T00:26:06.026Z,97481.91
2022-11-24T00:28:34.196Z,97484.72
2022-11-24T00:31:01.466Z,97490.00
2022-11-24T00:33:27.880Z,97491.03
2022-11-24T00:35:59.185Z,97484.59
2022-11-24T00:38:25.918Z,97495.44
2022-11-24T00:40:52.967Z,97491.63
2022-11-24T00:43:19.739Z,97489.00
2022-11-24T00:45:46.197Z,97498.13
2022-11-24T00:48:12.697Z,97495.44
2022-11-24T00:50:39.064Z,97490.41
2022-11-24T00:53:05.453Z,97497.56
2022-11-24T00:55:31.911Z,97490.34
2022-11-24T00:57:58.379Z,97494.72
2022-11-24T01:00:24.797Z,97496.22
2022-11-24T01:02:52.776Z,97502.97
2022-11-24T01:05:19.313Z,97499.72
2022-11-24T01:07:45.730Z,97500.09
2022-11-24T01:10:12.159Z,97497.88
2022-11-24T01:12:38.510Z,97508.44
2022-11-24T01:15:05.351Z,97499.09
2022-11-24T01:17:31.776Z,97504.19
2022-11-24T01:19:58.127Z,97506.97
2022-11-24T01:22:26.387Z,97508.88
2022-11-24T01:24:52.774Z,97519.19
2022-11-24T01:27:19.134Z,97521.50
2022-11-24T01:29:45.518Z,97512.69
2022-11-24T01:32:11.898Z,97523.88
2022-11-24T01:34:38.244Z,97529.09
2022-11-24T01:37:04.757Z,97531.13
2022-11-24T01:39:31.144Z,97530.94
2022-11-24T01:42:01.471Z,97529.53
2022-11-24T01:44:30.365Z,97529.16
2022-11-24T01:47:21.140Z,97523.53
2022-11-24T01:49:53.094Z,97529.28
2022-11-24T01:52:24.729Z,97532.03
2022-11-24T01:55:02.045Z,97540.47
2022-11-24T01:57:34.529Z,97543.69
2022-11-24T02:00:06.248Z,97557.03
2022-11-24T02:02:32.709Z,97560.75
2022-11-24T02:05:05.618Z,97562.31
2022-11-24T02:07:33.067Z,97554.44
2022-11-24T02:10:01.663Z,97556.66
2022-11-24T02:12:28.693Z,97556.47
2022-11-24T02:14:55.926Z,97553.97
2022-11-24T02:17:22.662Z,97562.69
2022-11-24T02:20:00.659Z,97561.94
2022-11-24T02:22:49.395Z,97554.34
2022-11-24T02:25:32.264Z,97561.09
2022-11-24T02:28:00.418Z,97563.78
2022-11-24T02:30:26.798Z,97559.13
2022-11-24T02:32:53.721Z,97567.94
2022-11-24T02:35:20.669Z,97564.97
2022-11-24T02:37:47.051Z,97562.66
2022-11-24T02:40:20.579Z,97567.94
2022-11-24T02:42:47.388Z,97569.50
2022-11-24T02:45:16.504Z,97567.31
2022-11-24T02:47:43.571Z,97577.47
2022-11-24T02:50:10.108Z,97566.72
2022-11-24T02:52:36.556Z,97573.38
2022-11-24T02:55:03.206Z,97579.75
2022-11-24T02:57:29.795Z,97575.38
2022-11-24T02:59:56.485Z,97574.09
2022-11-24T03:02:23.095Z,97578.91
2022-11-24T03:04:49.528Z,97584.25
2022-11-24T03:07:15.938Z,97586.66
2022-11-24T03:09:42.400Z,97583.44
2022-11-24T03:12:08.764Z,97586.22
2022-11-24T03:14:35.278Z,97576.66
2022-11-24T03:17:01.831Z,97579.53
2022-11-24T03:19:28.178Z,97585.81
2022-11-24T03:21:54.572Z,97574.06
2022-11-24T03:24:21.034Z,97586.75
2022-11-24T03:26:47.393Z,97584.78
2022-11-24T03:29:13.731Z,97587.09
2022-11-24T03:31:40.203Z,97584.41
2022-11-24T03:34:06.636Z,97590.34
2022-11-24T03:36:32.995Z,97584.13
2022-11-24T03:38:59.351Z,97588.53
2022-11-24T03:41:25.973Z,97593.25
2022-11-24T03:43:52.349Z,97593.53
2022-11-24T03:46:18.883Z,97597.03
2022-11-24T03:48:45.297Z,97595.56
2022-11-24T03:51:11.661Z,97591.84
2022-11-24T03:53:38.356Z,97594.34
2022-11-24T03:56:04.788Z,97599.22
2022-11-24T03:58:31.194Z,97596.16
2022-11-24T04:00:57.645Z,97598.66
2022-11-24T04:03:24.812Z,97591.16
2022-11-24T04:05:51.362Z,97607.94
2022-11-24T04:08:17.851Z,97596.22
2022-11-24T04:10:44.231Z,97601.47
2022-11-24T04:13:14.012Z,97610.22
2022-11-24T04:15:41.788Z,97610.78
2022-11-24T04:18:09.801Z,97612.00
2022-11-24T04:20:37.099Z,97616.31
2022-11-24T04:23:03.768Z,97620.03
2022-11-24T04:25:30.440Z,97618.28
2022-11-24T04:27:56.918Z,97615.56
2022-11-24T04:30:24.778Z,97615.56
2022-11-24T04:32:51.312Z,97612.66
2022-11-24T04:35:18.263Z,97625.88
2022-11-24T04:37:44.879Z,97631.41
2022-11-24T04:40:12.418Z,97632.91
2022-11-24T04:42:38.961Z,97637.22
2022-11-24T04:45:06.346Z,97634.47
2022-11-24T04:47:33.087Z,97638.22
2022-11-24T04:49:59.611Z,97643.75
2022-11-24T04:52:26.494Z,97642.53
2022-11-24T04:54:52.946Z,97646.72
2022-11-24T04:57:25.079Z,97651.97
2022-11-24T04:59:52.690Z,97651.19
2022-11-24T05:02:19.443Z,97653.78
2022-11-24T05:04:46.175Z,97655.28
2022-11-24T05:07:18.849Z,97663.28
2022-11-24T05:10:24.991Z,97661.75
2022-11-24T05:12:59.352Z,97669.50
2022-11-24T05:15:26.205Z,97672.09
2022-11-24T05:17:52.725Z,97669.38
2022-11-24T05:20:19.581Z,97678.31
2022-11-24T05:22:45.957Z,97674.28
2022-11-24T05:25:14.169Z,97676.78
2022-11-24T05:27:41.117Z,97679.75
2022-11-24T05:30:08.201Z,97682.16
2022-11-24T05:32:34.598Z,97685.91
2022-11-24T05:35:02.222Z,97690.84
2022-11-24T05:37:28.720Z,97691.31
2022-11-24T05:39:55.112Z,97694.50
2022-11-24T05:42:43.528Z,97697.44
2022-11-24T05:45:16.147Z,97701.44
2022-11-24T05:47:43.003Z,97702.13
2022-11-24T05:50:11.696Z,97708.81
2022-11-24T05:52:38.615Z,97714.78
2022-11-24T05:55:06.629Z,97714.03
2022-11-24T05:57:33.573Z,97722.53
2022-11-24T06:00:00.233Z,97716.72
2022-11-24T06:02:26.969Z,97724.03
2022-11-24T06:04:53.442Z,97730.41
2022-11-24T06:07:20.006Z,97736.41
2022-11-24T06:09:46.817Z,97733.34
2022-11-24T06:12:13.738Z,97731.06
2022-11-24T06:14:40.828Z,97742.69
2022-11-24T06:17:07.761Z,97744.38
2022-11-24T06:19:37.379Z,97745.84
2022-11-24T06:22:06.459Z,97746.19
2022-11-24T06:24:33.113Z,97748.84
2022-11-24T06:26:59.766Z,97749.31
2022-11-24T06:29:26.168Z,97755.09
2022-11-24T06:31:52.633Z,97753.81
2022-11-24T06:34:19.176Z,97762.25
2022-11-24T06:36:45.540Z,97749.44
2022-11-24T06:39:11.935Z,97760.72
2022-11-24T06:41:38.313Z,97763.69
2022-11-24T06:44:05.005Z,97767.25
2022-11-24T06:46:31.595Z,97764.16
2022-11-24T06:48:59.677Z,97768.84
2022-11-24T06:51:27.030Z,97774.97
2022-11-24T06:53:53.749Z,97774.34
2022-11-24T06:56:21.015Z,97774.53
2022-11-24T06:58:50.162Z,97782.00
2022-11-24T07:01:22.170Z,97782.72
2022-11-24T07:03:48.998Z,97785.41
2022-11-24T07:06:16.592Z,97780.09
2022-11-24T07:08:43.538Z,97789.09
2022-11-24T07:11:15.398Z,97793.00
2022-11-24T07:13:42.864Z,97797.66
2022-11-24T07:16:17.941Z,97800.16
2022-11-24T07:18:46.219Z,97795.88
2022-11-24T07:21:13.382Z,97807.41
2022-11-24T07:23:40.040Z,97811.88
2022-11-24T07:26:07.629Z,97805.34
2022-11-24T07:28:35.051Z,97810.25
2022-11-24T07:31:06.559Z,97803.38
2022-11-24T07:33:32.989Z,97807.34
2022-11-24T07:36:00.569Z,97821.25
2022-11-24T07:38:26.857Z,97820.78
2022-11-24T07:40:53.337Z,97822.47
2022-11-24T07:43:20.426Z,97832.13
2022-11-24T07:45:52.509Z,97825.00
2022-11-24T07:48:18.968Z,97821.75
2022-11-24T07:50:45.441Z,97825.59
2022-11-24T07:53:12.145Z,97832.31
2022-11-24T07:55:38.508Z,97829.44
2022-11-24T07:58:04.952Z,97831.13
2022-11-24T08:00:31.307Z,97832.50
2022-11-24T08:02:57.780Z,97835.19
2022-11-24T08:05:24.216Z,97829.63
2022-11-24T08:07:50.716Z,97838.34
2022-11-24T08:10:17.973Z,97840.28
2022-11-24T08:12:44.485Z,97836.97
2022-11-24T08:15:11.619Z,97843.63
2022-11-24T08:17:38.232Z,97833.63
2022-11-24T08:20:05.320Z,97843.28
2022-11-24T08:22:31.778Z,97841.31
2022-11-24T08:24:58.305Z,97846.41
2022-11-24T08:27:24.811Z,97839.09
2022-11-24T08:29:51.246Z,97838.69
2022-11-24T08:32:22.335Z,97830.50
2022-11-24T08:34:48.996Z,97828.47
2022-11-24T08:37:15.398Z,97832.53
2022-11-24T08:39:41.754Z,97834.91
2022-11-24T08:42:08.148Z,97841.47
2022-11-24T08:44:34.672Z,97847.69
2022-11-24T08:47:01.151Z,97848.25
2022-11-24T08:49:27.700Z,97847.84
2022-11-24T08:51:56.696Z,97849.47
2022-11-24T08:54:23.254Z,97853.19
2022-11-24T08:56:50.021Z,97855.63
2022-11-24T08:59:16.587Z,97854.91
2022-11-24T09:01:43.117Z,97851.25
2022-11-24T09:04:09.774Z,97847.31
2022-11-24T09:06:36.302Z,97857.72
2022-11-24T09:09:03.291Z,97853.94
2022-11-24T09:11:30.725Z,97857.06
2022-11-24T09:13:57.119Z,97857.69
2022-11-24T09:16:26.316Z,97864.22
2022-11-24T09:19:01.249Z,97862.28
2022-11-24T09:21:28.492Z,97875.47
2022-11-24T09:23:55.708Z,97870.00
2022-11-24T09:26:27.604Z,97872.25
2022-11-24T09:28:55.507Z,97877.25
2022-11-24T09:31:25.195Z,97871.06
2022-11-24T09:33:52.428Z,97871.50
2022-11-24T09:36:19.318Z,97868.88
2022-11-24T09:38:45.899Z,97867.06
2022-11-24T09:41:18.326Z,97875.78
2022-11-24T09:44:22.379Z,97871.06
2022-11-24T09:47:03.844Z,97873.72
2022-11-24T09:49:30.172Z,97880.84
2022-11-24T09:51:57.456Z,97874.69
2022-11-24T09:54:28.453Z,97873.47
2022-11-24T09:56:59.759Z,97873.34
2022-11-24T09:59:27.445Z,97868.31
2022-11-24T10:01:54.903Z,97880.16
2022-11-24T10:04:22.794Z,97884.00
2022-11-24T10:07:09.085Z,97881.22
2022-11-24T10:10:07.080Z,97881.34
2022-11-24T10:13:16.488Z,97890.66
2022-11-24T10:16:14.974Z,97886.88
2022-11-24T10:19:02.492Z,97883.88
2022-11-24T10:21:40.668Z,97881.69
2022-11-24T10:24:44.668Z,97876.63
2022-11-24T10:27:18.276Z,97883.47
2022-11-24T10:29:48.107Z,97886.56
2022-11-24T10:32:18.837Z,97878.13
2022-11-24T10:34:48.755Z,97876.63
2022-11-24T10:37:28.551Z,97884.63
2022-11-24T10:40:40.425Z,97873.81
2022-11-24T10:43:00.808Z,97884.44
2022-11-24T10:45:28.997Z,97875.69
2022-11-24T10:47:57.784Z,97874.06
2022-11-24T10:50:38.033Z,97876.28
2022-11-24T10:53:13.673Z,97875.97
2022-11-24T10:55:55.747Z,97874.00
2022-11-24T10:58:26.756Z,97882.47
2022-11-24T11:00:54.686Z,97881.13
2022-11-24T11:03:24.079Z,97882.59
2022-11-24T11:06:15.072Z,97871.06
2022-11-24T11:08:41.478Z,97872.06
2022-11-24T11:11:27.390Z,97875.94
2022-11-24T11:14:03.993Z,97870.44
2022-11-24T11:16:54.030Z,97870.91
2022-11-24T11:19:49.058Z,97878.25
2022-11-24T11:22:25.947Z,97877.16
2022-11-24T11:25:29.583Z,97875.00
2022-11-24T11:28:18.649Z,97883.19
2022-11-24T11:31:20.432Z,97870.97
2022-11-24T11:34:23.503Z,97882.25
2022-11-24T11:36:56.166Z,97877.09
2022-11-24T11:39:43.842Z,97881.25
2022-11-24T11:43:00.726Z,97877.84
2022-11-24T11:45:30.841Z,97874.25
2022-11-24T11:48:03.439Z,97880.09
2022-11-24T11:51:14.792Z,97882.34
2022-11-24T11:53:45.753Z,97885.50
2022-11-24T11:56:24.424Z,97883.75
2022-11-24T11:59:06.459Z,97891.41
2022-11-24T12:01:46.911Z,97885.50
2022-11-24T12:04:22.436Z,97886.44
2022-11-24T12:07:06.047Z,97895.31
2022-11-24T12:09:46.978Z,97890.78
2022-11-24T12:12:38.857Z,97889.84
2022-11-24T12:15:37.677Z,97894.66
2022-11-24T12:18:26.786Z,97898.69
2022-11-24T12:21:17.062Z,97903.22
2022-11-24T12:23:53.369Z,97900.59
2022-11-24T12:26:43.892Z,97897.53
2022-11-24T12:29:37.024Z,97897.84
2022-11-24T12:32:06.320Z,97894.28
2022-11-24T12:34:53.045Z,97899.31
2022-11-24T12:38:02.800Z,97900.59
2022-11-24T12:40:35.105Z,97906.69
2022-11-24T12:43:11.842Z,97909.75
2022-11-24T12:46:19.733Z,97907.22
2022-11-24T12:49:04.471Z,97909.22
2022-11-24T12:51:38.304Z,97917.63
2022-11-24T12:54:10.401Z,97915.41
2022-11-24T12:56:43.256Z,97921.78
2022-11-24T12:59:33.197Z,97919.72
2022-11-24T13:02:21.426Z,97914.19
2022-11-24T13:05:06.872Z,97920.63
2022-11-24T13:07:42.760Z,97928.59
2022-11-24T13:13:15.219Z,97929.34
2022-11-24T13:16:20.578Z,97934.09
2022-11-24T13:19:00.201Z,97936.38
2022-11-24T13:21:42.814Z,97929.97
2022-11-24T13:24:19.700Z,97932.78
2022-11-24T13:26:55.295Z,97935.53
2022-11-24T13:29:28.302Z,97944.91
2022-11-24T13:31:55.977Z,97945.03
2022-11-24T13:34:41.084Z,97947.13
2022-11-24T13:37:39.544Z,97945.56
2022-11-24T13:40:12.084Z,97954.50
2022-11-24T13:43:02.734Z,97953.16
2022-11-24T13:45:49.664Z,97957.03
2022-11-24T13:48:18.930Z,97954.69
2022-11-24T13:50:51.731Z,97962.06
2022-11-24T13:53:38.558Z,97963.41
2022-11-24T13:56:14.273Z,97963.22
2022-11-24T13:58:48.623Z,97968.47
2022-11-24T14:01:33.159Z,97963.03
2022-11-24T14:07:09.554Z,97970.22
2022-11-24T14:09:47.019Z,97975.78
2022-11-24T14:12:13.424Z,97974.00
2022-11-24T14:14:40.494Z,97985.59
2022-11-24T14:17:12.917Z,97982.19
2022-11-24T14:19:39.579Z,97986.75
2022-11-24T14:22:06.027Z,97985.88
2022-11-24T14:24:38.245Z,97990.00
2022-11-24T14:27:15.325Z,97994.31
2022-11-24T14:30:04.726Z,97997.47
2022-11-24T14:32:31.282Z,98000.28
2022-11-24T14:34:57.823Z,97998.50
2022-11-24T14:37:24.569Z,98002.41
2022-11-24T14:39:51.088Z,98001.97
2022-11-24T14:42:23.705Z,98006.81
2022-11-24T14:45:17.732Z,98010.50
2022-11-24T14:47:45.188Z,98008.28
2022-11-24T14:50:16.163Z,98012.91
2022-11-24T14:52:52.419Z,98013.97
2022-11-24T14:55:29.596Z,98016.78
2022-11-24T14:57:56.680Z,98019.50
2022-11-24T15:00:31.531Z,98023.06
2022-11-24T15:03:01.042Z,98028.03
2022-11-24T15:05:53.527Z,98038.00
2022-11-24T15:08:20.235Z,98042.50
2022-11-24T15:10:46.955Z,98043.88
2022-11-24T15:13:20.475Z,98043.44
2022-11-24T15:15:51.712Z,98041.09
2022-11-24T15:18:27.842Z,98049.00
2022-11-24T15:20:54.812Z,98043.06
2022-11-24T15:23:26.114Z,98052.72
2022-11-24T15:25:54.442Z,98043.56
2022-11-24T15:28:25.989Z,98048.03
2022-11-24T15:31:03.981Z,98048.56
2022-11-24T15:33:31.106Z,98064.63
2022-11-24T15:35:58.042Z,98063.28
2022-11-24T15:38:24.476Z,98057.41
2022-11-24T15:40:52.781Z,98062.75
2022-11-24T15:43:36.735Z,98066.94
2022-11-24T15:46:04.447Z,98070.06
2022-11-24T15:48:31.093Z,98061.28
2022-11-24T15:50:59.254Z,98068.13
2022-11-24T15:53:30.140Z,98067.69
2022-11-24T15:55:57.393Z,98079.88
2022-11-24T15:58:24.222Z,98078.72
2022-11-24T16:00:53.807Z,98083.75
2022-11-24T16:06:12.719Z,98078.56
2022-11-24T16:08:39.147Z,98085.09
2022-11-24T16:11:05.723Z,98089.09
2022-11-24T16:13:32.234Z,98089.84
2022-11-24T16:15:58.753Z,98092.97
2022-11-24T16:18:25.281Z,98100.13
2022-11-24T16:20:51.663Z,98094.63
2022-11-24T16:23:18.388Z,98104.25
2022-11-24T16:25:44.999Z,98098.78
2022-11-24T16:28:11.467Z,98092.56
2022-11-24T16:30:38.202Z,98101.19
2022-11-24T16:33:08.235Z,98107.06
2022-11-24T16:35:34.635Z,98105.59
2022-11-24T16:38:01.104Z,98120.00
2022-11-24T16:40:28.553Z,98106.25
2022-11-24T16:42:56.192Z,98122.72
2022-11-24T16:45:22.716Z,98111.59
2022-11-24T16:47:49.224Z,98108.31
2022-11-24T16:50:15.776Z,98115.13
2022-11-24T16:52:42.288Z,98113.34
2022-11-24T16:55:09.741Z,98122.72
2022-11-24T16:57:36.833Z,98109.34
2022-11-24T17:00:05.095Z,98118.69
2022-11-24T17:02:32.810Z,98130.56
2022-11-24T17:04:59.230Z,98124.03
2022-11-24T17:07:26.335Z,98133.38
2022-11-24T17:09:52.758Z,98124.34
2022-11-24T17:12:19.285Z,98133.72
2022-11-24T17:15:03.113Z,98133.25
2022-11-24T17:17:32.262Z,98139.34
2022-11-24T17:19:58.674Z,98142.16
2022-11-24T17:22:25.142Z,98139.91
2022-11-24T17:24:51.523Z,98139.91
2022-11-24T17:27:17.994Z,98148.53
2022-11-24T17:29:44.394Z,98142.75
2022-11-24T17:32:10.830Z,98141.69
2022-11-24T17:34:37.452Z,98143.81
2022-11-24T17:37:04.005Z,98146.66
2022-11-24T17:39:30.410Z,98149.75
2022-11-24T17:41:56.773Z,98155.09
2022-11-24T17:44:23.245Z,98155.09
2022-11-24T17:46:50.729Z,98156.13
2022-11-24T17:49:18.274Z,98155.25
2022-11-24T17:51:50.243Z,98159.53
2022-11-24T17:54:45.545Z,98158.06
2022-11-24T17:57:04.511Z,98161.31
2022-11-24T17:59:30.914Z,98168.16
2022-11-24T18:01:57.391Z,98167.69
2022-11-24T18:04:23.807Z,98170.50
2022-11-24T18:06:50.195Z,98170.09
2022-11-24T18:09:16.650Z,98169.63
2022-11-24T18:11:43.197Z,98169.91
2022-11-24T18:14:09.849Z,98175.53
2022-11-24T18:16:36.284Z,98177.63
2022-11-24T18:19:08.785Z,98182.69
2022-11-24T18:21:40.693Z,98181.22
2022-11-24T18:24:09.004Z,98177.03
2022-11-24T18:26:35.640Z,98175.25
2022-11-24T18:29:02.267Z,98177.19
2022-11-24T18:31:29.575Z,98177.78
2022-11-24T18:33:56.155Z,98178.38
2022-11-24T18:36:29.865Z,98185.53
2022-11-24T18:38:57.863Z,98186.28
2022-11-24T18:41:24.219Z,98191.59
2022-11-24T18:43:50.679Z,98180.59
2022-11-24T18:46:17.661Z,98187.88
2022-11-24T18:48:45.375Z,98184.63
2022-11-24T18:51:15.329Z,98178.41
2022-11-24T18:53:43.143Z,98190.56
2022-11-24T18:56:15.724Z,98194.84
2022-11-24T18:58:43.204Z,98192.16
2022-11-24T19:01:21.449Z,98192.63
2022-11-24T19:03:51.069Z,98199.16
2022-11-24T19:06:39.358Z,98188.78
2022-11-24T19:09:08.946Z,98197.09
2022-11-24T19:11:38.385Z,98197.38
2022-11-24T19:14:06.829Z,98196.34
2022-11-24T19:16:34.175Z,98192.03
2022-11-24T19:19:02.475Z,98193.53
2022-11-24T19:21:31.711Z,98198.56
2022-11-24T19:24:04.208Z,98198.97
2022-11-24T19:26:31.835Z,98204.34
2022-11-24T19:28:58.353Z,98206.53
2022-11-24T19:31:24.782Z,98204.78
2022-11-24T19:33:52.829Z,98212.03
2022-11-24T19:36:21.054Z,98214.28
2022-11-24T19:38:52.487Z,98216.78
2022-11-24T19:41:20.708Z,98225.84
2022-11-24T19:43:47.986Z,98220.06
2022-11-24T19:46:17.029Z,98228.50
2022-11-24T19:48:45.613Z,98225.28
2022-11-24T19:51:14.852Z,98221.25
2022-11-24T19:53:42.753Z,98223.19
2022-11-24T19:56:17.342Z,98223.19
2022-11-24T19:58:44.189Z,98223.31
2022-11-24T20:01:13.425Z,98233.41
2022-11-24T20:03:41.284Z,98232.22
2022-11-24T20:06:09.989Z,98231.47
2022-11-24T20:08:37.701Z,98237.53
2022-11-24T20:11:07.982Z,98228.50
2022-11-24T20:13:35.794Z,98228.19
2022-11-24T20:16:09.079Z,98226.88
2022-11-24T20:18:41.718Z,98229.69
2022-11-24T20:21:11.081Z,98235.47
2022-11-24T20:23:38.026Z,98246.59
2022-11-24T20:26:07.355Z,98251.81
2022-11-24T20:28:34.036Z,98240.97
2022-11-24T20:31:05.257Z,98256.84
2022-11-24T20:33:32.138Z,98257.59
2022-11-24T20:36:04.045Z,98264.84
2022-11-24T20:38:30.941Z,98266.31
2022-11-24T20:41:09.000Z,98269.59
2022-11-24T20:43:36.608Z,98264.13
2022-11-24T20:46:08.383Z,98273.16
2022-11-24T20:48:35.484Z,98270.66
2022-11-24T20:51:08.135Z,98278.94
2022-11-24T20:53:35.190Z,98281.03
2022-11-24T20:56:06.142Z,98283.53
2022-11-24T20:58:34.576Z,98277.16
2022-11-24T21:01:12.168Z,98282.94
2022-11-24T21:03:43.281Z,98283.97
2022-11-24T21:06:11.757Z,98288.28
2022-11-24T21:08:39.359Z,98283.97
2022-11-24T21:11:06.637Z,98289.31
2022-11-24T21:13:34.508Z,98279.66
2022-11-24T21:16:10.662Z,98286.94
2022-11-24T21:18:37.104Z,98284.44
2022-11-24T21:21:03.426Z,98294.50
2022-11-24T21:23:29.808Z,98287.97
2022-11-24T21:26:05.244Z,98289.00
2022-11-24T21:28:32.329Z,98285.03
2022-11-24T21:31:10.220Z,98287.56
2022-11-24T21:33:45.515Z,98295.84
2022-11-24T21:36:14.621Z,98295.13
2022-11-24T21:38:42.539Z,98287.97
2022-11-24T21:41:10.849Z,98291.38
2022-11-24T21:43:37.540Z,98294.66
2022-11-24T21:46:06.836Z,98293.91
2022-11-24T21:48:35.685Z,98291.84
2022-11-24T21:51:04.339Z,98300.00
2022-11-24T21:53:33.440Z,98297.75
2022-11-24T21:56:01.633Z,98298.50
2022-11-24T21:58:29.604Z,98302.66
2022-11-24T22:01:02.492Z,98307.69
2022-11-24T22:03:29.651Z,98313.00
2022-11-24T22:05:57.714Z,98309.47
2022-11-24T22:08:25.885Z,98314.78
2022-11-24T22:10:52.855Z,98322.34
2022-11-24T22:13:20.049Z,98315.84
2022-11-24T22:15:46.406Z,98330.22
2022-11-24T22:18:12.775Z,98326.97
2022-11-24T22:20:39.280Z,98330.22
2022-11-24T22:23:05.622Z,98328.47
2022-11-24T22:25:33.366Z,98326.69
2022-11-24T22:27:59.983Z,98325.47
2022-11-24T22:30:26.409Z,98325.19
2022-11-24T22:32:53.133Z,98325.63
2022-11-24T22:35:19.489Z,98325.38
2022-11-24T22:37:46.032Z,98326.72
2022-11-24T22:40:12.577Z,98326.25
2022-11-24T22:42:38.940Z,98326.97
2022-11-24T22:45:05.980Z,98334.25
2022-11-24T22:47:32.405Z,98331.44
2022-11-24T22:49:58.829Z,98331.31
2022-11-24T22:52:25.225Z,98337.66
2022-11-24T22:54:51.591Z,98336.19
2022-11-24T22:57:18.002Z,98339.00
2022-11-24T22:59:44.357Z,98344.91
2022-11-24T23:02:10.729Z,98353.06
2022-11-24T23:04:37.450Z,98341.81
2022-11-24T23:07:03.964Z,98349.38
2022-11-24T23:09:30.372Z,98348.31
2022-11-24T23:11:56.727Z,98351.88
2022-11-24T23:14:23.189Z,98351.13
2022-11-24T23:16:49.634Z,98356.94
2022-11-24T23:19:16.092Z,98353.66
2022-11-24T23:21:42.438Z,98358.69
2022-11-24T23:24:10.447Z,98354.09
2022-11-24T23:26:39.555Z,98353.34
2022-11-24T23:29:06.937Z,98357.66
2022-11-24T23:31:33.778Z,98360.91
2022-11-24T23:34:03.020Z,98359.44
2022-11-24T23:36:30.244Z,98358.69
2022-11-24T23:39:01.559Z,98356.19
2022-11-24T23:41:30.376Z,98348.91
2022-11-24T23:43:56.745Z,98354.09
2022-11-24T23:46:25.114Z,98358.38
2022-11-24T23:48:53.539Z,98353.63
2022-11-24T23:51:31.041Z,98347.38
2022-11-24T23:53:58.588Z,98357.31
2022-11-24T23:56:26.048Z,98352.69
2022-11-24T23:58:52.548Z,98339.34
